sensor_id;sensor_type;location;lat;lon;timestamp;temperature;humidity
25963;DHT22;13760;52.588;13.406;2022-09-24T00:00:54;10.60;99.90
25963;DHT22;13760;52.588;13.406;2022-09-24T00:03:20;10.60;99.90
25963;DHT22;13760;52.588;13.406;2022-09-24T00:05:47;10.50;99.90
25963;DHT22;13760;52.588;13.406;2022-09-24T00:08:14;10.50;99.90
25963;DHT22;13760;52.588;13.406;2022-09-24T00:10:42;10.50;99.90
25963;DHT22;13760;52.588;13.406;2022-09-24T00:13:11;10.50;99.90
25963;DHT22;13760;52.588;13.406;2022-09-24T00:15:38;10.50;99.90
25963;DHT22;13760;52.588;13.406;2022-09-24T00:18:04;10.40;99.90
25963;DHT22;13760;52.588;13.406;2022-09-24T00:20:31;10.50;99.90
25963;DHT22;13760;52.588;13.406;2022-09-24T00:22:57;10.40;99.90
25963;DHT22;13760;52.588;13.406;2022-09-24T00:25:23;10.40;99.90
25963;DHT22;13760;52.588;13.406;2022-09-24T00:28:07;10.40;99.90
25963;DHT22;13760;52.588;13.406;2022-09-24T00:30:33;10.30;99.90
25963;DHT22;13760;52.588;13.406;2022-09-24T00:32:59;10.30;99.90
25963;DHT22;13760;52.588;13.406;2022-09-24T00:35:24;10.30;99.90
25963;DHT22;13760;52.588;13.406;2022-09-24T00:37:50;10.20;99.90
25963;DHT22;13760;52.588;13.406;2022-09-24T00:40:16;10.20;99.90
25963;DHT22;13760;52.588;13.406;2022-09-24T00:42:42;10.20;99.90
25963;DHT22;13760;52.588;13.406;2022-09-24T00:45:09;10.20;99.90
25963;DHT22;13760;52.588;13.406;2022-09-24T00:47:41;10.20;99.90
25963;DHT22;13760;52.588;13.406;2022-09-24T00:50:15;10.10;99.90
25963;DHT22;13760;52.588;13.406;2022-09-24T00:52:46;10.10;99.90
25963;DHT22;13760;52.588;13.406;2022-09-24T00:55:13;10.10;99.90
25963;DHT22;13760;52.588;13.406;2022-09-24T00:57:40;10.10;99.90
25963;DHT22;13760;52.588;13.406;2022-09-24T01:00:07;10.10;99.90
25963;DHT22;13760;52.588;13.406;2022-09-24T01:02:35;10.10;99.90
25963;DHT22;13760;52.588;13.406;2022-09-24T01:05:02;10.10;99.90
25963;DHT22;13760;52.588;13.406;2022-09-24T01:07:28;10.10;99.90
25963;DHT22;13760;52.588;13.406;2022-09-24T01:09:54;10.10;99.90
25963;DHT22;13760;52.588;13.406;2022-09-24T01:19:16;10.10;99.90
25963;DHT22;13760;52.588;13.406;2022-09-24T01:21:50;10.10;99.90
25963;DHT22;13760;52.588;13.406;2022-09-24T01:24:22;10.10;99.90
25963;DHT22;13760;52.588;13.406;2022-09-24T01:26:59;10.10;99.90
25963;DHT22;13760;52.588;13.406;2022-09-24T01:29:35;10.10;99.90
25963;DHT22;13760;52.588;13.406;2022-09-24T01:32:30;10.10;99.90
25963;DHT22;13760;52.588;13.406;2022-09-24T01:35:04;10.10;99.90
25963;DHT22;13760;52.588;13.406;2022-09-24T01:37:34;10.20;99.90
25963;DHT22;13760;52.588;13.406;2022-09-24T01:40:03;10.10;99.90
25963;DHT22;13760;52.588;13.406;2022-09-24T01:42:31;10.20;99.90
25963;DHT22;13760;52.588;13.406;2022-09-24T01:45:00;10.20;99.90
25963;DHT22;13760;52.588;13.406;2022-09-24T01:47:37;10.20;99.90
25963;DHT22;13760;52.588;13.406;2022-09-24T01:50:05;10.20;99.90
25963;DHT22;13760;52.588;13.406;2022-09-24T01:52:42;10.20;99.90
25963;DHT22;13760;52.588;13.406;2022-09-24T01:55:13;10.30;99.90
25963;DHT22;13760;52.588;13.406;2022-09-24T01:57:44;10.30;99.90
25963;DHT22;13760;52.588;13.406;2022-09-24T02:00:12;10.30;99.90
25963;DHT22;13760;52.588;13.406;2022-09-24T02:06:00;10.40;99.90
25963;DHT22;13760;52.588;13.406;2022-09-24T02:10:44;10.50;99.90
25963;DHT22;13760;52.588;13.406;2022-09-24T02:13:11;10.50;99.90
25963;DHT22;13760;52.588;13.406;2022-09-24T02:15:40;10.60;99.90
25963;DHT22;13760;52.588;13.406;2022-09-24T02:18:08;10.60;99.90
25963;DHT22;13760;52.588;13.406;2022-09-24T02:20:35;10.60;99.90
25963;DHT22;13760;52.588;13.406;2022-09-24T02:23:03;10.60;99.90
25963;DHT22;13760;52.588;13.406;2022-09-24T02:25:52;10.60;99.90
25963;DHT22;13760;52.588;13.406;2022-09-24T02:28:19;10.70;99.90
25963;DHT22;13760;52.588;13.406;2022-09-24T02:31:03;10.70;99.90
25963;DHT22;13760;52.588;13.406;2022-09-24T02:33:31;10.70;99.90
25963;DHT22;13760;52.588;13.406;2022-09-24T02:36:16;10.70;99.90
25963;DHT22;13760;52.588;13.406;2022-09-24T02:38:42;10.70;99.90
25963;DHT22;13760;52.588;13.406;2022-09-24T02:41:09;10.70;99.90
25963;DHT22;13760;52.588;13.406;2022-09-24T02:43:34;10.70;99.90
25963;DHT22;13760;52.588;13.406;2022-09-24T02:46:01;10.70;99.90
25963;DHT22;13760;52.588;13.406;2022-09-24T02:48:26;10.70;99.90
25963;DHT22;13760;52.588;13.406;2022-09-24T02:50:52;10.70;99.90
25963;DHT22;13760;52.588;13.406;2022-09-24T02:53:18;10.70;99.90
25963;DHT22;13760;52.588;13.406;2022-09-24T02:55:44;10.70;99.90
25963;DHT22;13760;52.588;13.406;2022-09-24T02:58:09;10.70;99.90
25963;DHT22;13760;52.588;13.406;2022-09-24T03:00:35;10.70;99.90
25963;DHT22;13760;52.588;13.406;2022-09-24T03:03:01;10.70;99.90
25963;DHT22;13760;52.588;13.406;2022-09-24T03:05:26;10.70;99.90
25963;DHT22;13760;52.588;13.406;2022-09-24T03:07:52;10.70;99.90
25963;DHT22;13760;52.588;13.406;2022-09-24T03:10:18;10.70;99.90
25963;DHT22;13760;52.588;13.406;2022-09-24T03:12:44;10.80;99.90
25963;DHT22;13760;52.588;13.406;2022-09-24T03:15:10;10.70;99.90
25963;DHT22;13760;52.588;13.406;2022-09-24T03:17:35;10.70;99.90
25963;DHT22;13760;52.588;13.406;2022-09-24T03:20:01;10.70;99.90
25963;DHT22;13760;52.588;13.406;2022-09-24T03:22:26;10.70;99.90
25963;DHT22;13760;52.588;13.406;2022-09-24T03:24:52;10.70;99.90
25963;DHT22;13760;52.588;13.406;2022-09-24T03:27:18;10.70;99.90
25963;DHT22;13760;52.588;13.406;2022-09-24T03:29:44;10.70;99.90
25963;DHT22;13760;52.588;13.406;2022-09-24T03:32:41;10.70;99.90
25963;DHT22;13760;52.588;13.406;2022-09-24T03:35:07;10.70;99.90
25963;DHT22;13760;52.588;13.406;2022-09-24T03:37:35;10.70;99.90
25963;DHT22;13760;52.588;13.406;2022-09-24T03:40:02;10.70;99.90
25963;DHT22;13760;52.588;13.406;2022-09-24T03:42:29;10.70;99.90
25963;DHT22;13760;52.588;13.406;2022-09-24T03:44:55;10.70;99.90
25963;DHT22;13760;52.588;13.406;2022-09-24T03:47:20;10.70;99.90
25963;DHT22;13760;52.588;13.406;2022-09-24T03:49:46;10.70;99.90
25963;DHT22;13760;52.588;13.406;2022-09-24T03:52:11;10.70;99.90
25963;DHT22;13760;52.588;13.406;2022-09-24T03:54:37;10.70;99.90
25963;DHT22;13760;52.588;13.406;2022-09-24T03:57:02;10.70;99.90
25963;DHT22;13760;52.588;13.406;2022-09-24T03:59:28;10.80;99.90
25963;DHT22;13760;52.588;13.406;2022-09-24T04:01:53;10.70;99.90
25963;DHT22;13760;52.588;13.406;2022-09-24T04:04:19;10.80;99.90
25963;DHT22;13760;52.588;13.406;2022-09-24T04:06:45;10.80;99.90
25963;DHT22;13760;52.588;13.406;2022-09-24T04:09:10;10.70;99.90
25963;DHT22;13760;52.588;13.406;2022-09-24T04:11:36;10.70;99.90
25963;DHT22;13760;52.588;13.406;2022-09-24T04:14:05;10.70;99.90
25963;DHT22;13760;52.588;13.406;2022-09-24T04:16:31;10.70;99.90
25963;DHT22;13760;52.588;13.406;2022-09-24T04:18:56;10.80;99.90
25963;DHT22;13760;52.588;13.406;2022-09-24T04:21:22;10.70;99.90
25963;DHT22;13760;52.588;13.406;2022-09-24T04:23:47;10.70;99.90
25963;DHT22;13760;52.588;13.406;2022-09-24T04:26:13;10.70;99.90
25963;DHT22;13760;52.588;13.406;2022-09-24T04:28:39;10.70;99.90
25963;DHT22;13760;52.588;13.406;2022-09-24T04:31:05;10.70;99.90
25963;DHT22;13760;52.588;13.406;2022-09-24T04:33:30;10.70;99.90
25963;DHT22;13760;52.588;13.406;2022-09-24T04:35:56;10.70;99.90
25963;DHT22;13760;52.588;13.406;2022-09-24T04:38:23;10.70;99.90
25963;DHT22;13760;52.588;13.406;2022-09-24T04:40:48;10.70;99.90
25963;DHT22;13760;52.588;13.406;2022-09-24T04:43:14;10.70;99.90
25963;DHT22;13760;52.588;13.406;2022-09-24T04:45:39;10.70;99.90
25963;DHT22;13760;52.588;13.406;2022-09-24T04:48:07;10.70;99.90
25963;DHT22;13760;52.588;13.406;2022-09-24T04:50:33;10.70;99.90
25963;DHT22;13760;52.588;13.406;2022-09-24T04:52:59;10.70;99.90
25963;DHT22;13760;52.588;13.406;2022-09-24T04:55:25;10.70;99.90
25963;DHT22;13760;52.588;13.406;2022-09-24T04:57:55;10.60;99.90
25963;DHT22;13760;52.588;13.406;2022-09-24T05:00:21;10.70;99.90
25963;DHT22;13760;52.588;13.406;2022-09-24T05:02:47;10.70;99.90
25963;DHT22;13760;52.588;13.406;2022-09-24T05:05:12;10.70;99.90
25963;DHT22;13760;52.588;13.406;2022-09-24T05:07:38;10.70;99.90
25963;DHT22;13760;52.588;13.406;2022-09-24T05:10:05;10.70;99.90
25963;DHT22;13760;52.588;13.406;2022-09-24T05:12:31;10.70;99.90
25963;DHT22;13760;52.588;13.406;2022-09-24T05:14:58;10.70;99.90
25963;DHT22;13760;52.588;13.406;2022-09-24T05:17:24;10.70;99.90
25963;DHT22;13760;52.588;13.406;2022-09-24T05:19:49;10.70;99.90
25963;DHT22;13760;52.588;13.406;2022-09-24T05:22:15;10.70;99.90
25963;DHT22;13760;52.588;13.406;2022-09-24T05:24:40;10.70;99.90
25963;DHT22;13760;52.588;13.406;2022-09-24T05:27:07;10.70;99.90
25963;DHT22;13760;52.588;13.406;2022-09-24T05:29:36;10.70;99.90
25963;DHT22;13760;52.588;13.406;2022-09-24T05:32:04;10.70;99.90
25963;DHT22;13760;52.588;13.406;2022-09-24T05:34:30;10.70;99.90
25963;DHT22;13760;52.588;13.406;2022-09-24T05:36:56;10.70;99.90
25963;DHT22;13760;52.588;13.406;2022-09-24T05:39:21;10.70;99.90
25963;DHT22;13760;52.588;13.406;2022-09-24T05:41:47;10.80;99.90
25963;DHT22;13760;52.588;13.406;2022-09-24T05:44:12;10.70;99.90
25963;DHT22;13760;52.588;13.406;2022-09-24T05:46:38;10.80;99.90
25963;DHT22;13760;52.588;13.406;2022-09-24T05:49:03;10.80;99.90
25963;DHT22;13760;52.588;13.406;2022-09-24T05:51:29;10.80;99.90
25963;DHT22;13760;52.588;13.406;2022-09-24T05:53:54;10.80;99.90
25963;DHT22;13760;52.588;13.406;2022-09-24T05:56:20;10.80;99.90
25963;DHT22;13760;52.588;13.406;2022-09-24T05:58:49;10.80;99.90
25963;DHT22;13760;52.588;13.406;2022-09-24T06:01:15;10.80;99.90
25963;DHT22;13760;52.588;13.406;2022-09-24T06:03:40;10.80;99.90
25963;DHT22;13760;52.588;13.406;2022-09-24T06:06:06;10.80;99.90
25963;DHT22;13760;52.588;13.406;2022-09-24T06:08:32;10.90;99.90
25963;DHT22;13760;52.588;13.406;2022-09-24T06:11:05;10.90;99.90
25963;DHT22;13760;52.588;13.406;2022-09-24T06:13:34;10.90;99.90
25963;DHT22;13760;52.588;13.406;2022-09-24T06:16:01;10.90;99.90
25963;DHT22;13760;52.588;13.406;2022-09-24T06:18:26;10.90;99.90
25963;DHT22;13760;52.588;13.406;2022-09-24T06:20:52;10.90;99.90
25963;DHT22;13760;52.588;13.406;2022-09-24T06:23:19;10.90;99.90
25963;DHT22;13760;52.588;13.406;2022-09-24T06:25:48;10.90;99.90
25963;DHT22;13760;52.588;13.406;2022-09-24T06:28:15;10.90;99.90
25963;DHT22;13760;52.588;13.406;2022-09-24T06:30:40;11.00;99.90
25963;DHT22;13760;52.588;13.406;2022-09-24T06:33:09;11.00;99.90
25963;DHT22;13760;52.588;13.406;2022-09-24T06:35:35;11.00;99.90
25963;DHT22;13760;52.588;13.406;2022-09-24T06:38:05;11.00;99.90
25963;DHT22;13760;52.588;13.406;2022-09-24T06:40:32;11.10;99.90
25963;DHT22;13760;52.588;13.406;2022-09-24T06:42:57;11.10;99.90
25963;DHT22;13760;52.588;13.406;2022-09-24T06:45:23;11.10;99.90
25963;DHT22;13760;52.588;13.406;2022-09-24T06:47:53;11.20;99.90
25963;DHT22;13760;52.588;13.406;2022-09-24T06:50:25;11.20;99.90
25963;DHT22;13760;52.588;13.406;2022-09-24T06:52:51;11.20;99.90
25963;DHT22;13760;52.588;13.406;2022-09-24T06:55:17;11.20;99.90
25963;DHT22;13760;52.588;13.406;2022-09-24T06:57:43;11.30;99.90
25963;DHT22;13760;52.588;13.406;2022-09-24T07:00:09;11.30;99.90
25963;DHT22;13760;52.588;13.406;2022-09-24T07:02:36;11.40;99.90
25963;DHT22;13760;52.588;13.406;2022-09-24T07:05:02;11.40;99.90
25963;DHT22;13760;52.588;13.406;2022-09-24T07:07:27;11.40;99.90
25963;DHT22;13760;52.588;13.406;2022-09-24T07:10:01;11.50;99.90
25963;DHT22;13760;52.588;13.406;2022-09-24T07:12:31;11.50;99.90
25963;DHT22;13760;52.588;13.406;2022-09-24T07:14:57;11.50;99.90
25963;DHT22;13760;52.588;13.406;2022-09-24T07:17:27;11.60;99.90
25963;DHT22;13760;52.588;13.406;2022-09-24T07:19:53;11.60;99.90
25963;DHT22;13760;52.588;13.406;2022-09-24T07:22:19;11.60;99.90
25963;DHT22;13760;52.588;13.406;2022-09-24T07:24:45;11.70;99.90
25963;DHT22;13760;52.588;13.406;2022-09-24T07:27:11;11.70;99.90
25963;DHT22;13760;52.588;13.406;2022-09-24T07:29:37;11.70;99.90
25963;DHT22;13760;52.588;13.406;2022-09-24T07:32:03;11.80;99.90
25963;DHT22;13760;52.588;13.406;2022-09-24T07:34:33;11.80;99.90
25963;DHT22;13760;52.588;13.406;2022-09-24T07:36:58;11.90;99.90
25963;DHT22;13760;52.588;13.406;2022-09-24T07:39:24;11.90;99.90
25963;DHT22;13760;52.588;13.406;2022-09-24T07:41:51;12.00;99.90
25963;DHT22;13760;52.588;13.406;2022-09-24T07:44:20;12.00;99.90
25963;DHT22;13760;52.588;13.406;2022-09-24T07:46:48;12.10;99.90
25963;DHT22;13760;52.588;13.406;2022-09-24T07:49:14;12.20;99.90
25963;DHT22;13760;52.588;13.406;2022-09-24T07:51:39;12.30;99.90
25963;DHT22;13760;52.588;13.406;2022-09-24T07:54:05;12.30;99.90
25963;DHT22;13760;52.588;13.406;2022-09-24T07:56:30;12.40;99.90
25963;DHT22;13760;52.588;13.406;2022-09-24T07:58:59;12.50;99.90
25963;DHT22;13760;52.588;13.406;2022-09-24T08:01:25;12.60;99.90
25963;DHT22;13760;52.588;13.406;2022-09-24T08:03:51;12.60;99.90
25963;DHT22;13760;52.588;13.406;2022-09-24T08:06:18;12.70;99.90
25963;DHT22;13760;52.588;13.406;2022-09-24T08:08:47;12.70;99.90
25963;DHT22;13760;52.588;13.406;2022-09-24T08:11:13;12.70;99.90
25963;DHT22;13760;52.588;13.406;2022-09-24T08:13:39;12.70;99.90
25963;DHT22;13760;52.588;13.406;2022-09-24T08:16:05;12.70;99.90
25963;DHT22;13760;52.588;13.406;2022-09-24T08:18:31;12.80;99.90
25963;DHT22;13760;52.588;13.406;2022-09-24T08:21:07;12.80;99.90
25963;DHT22;13760;52.588;13.406;2022-09-24T08:23:37;12.90;99.90
25963;DHT22;13760;52.588;13.406;2022-09-24T08:26:03;12.90;99.90
25963;DHT22;13760;52.588;13.406;2022-09-24T08:28:29;12.90;99.90
25963;DHT22;13760;52.588;13.406;2022-09-24T08:31:00;12.90;99.90
25963;DHT22;13760;52.588;13.406;2022-09-24T08:33:27;13.00;99.90
25963;DHT22;13760;52.588;13.406;2022-09-24T08:35:53;13.00;99.90
25963;DHT22;13760;52.588;13.406;2022-09-24T08:38:18;13.00;99.90
25963;DHT22;13760;52.588;13.406;2022-09-24T08:49:12;13.20;99.90
25963;DHT22;13760;52.588;13.406;2022-09-24T08:52:28;13.30;99.90
25963;DHT22;13760;52.588;13.406;2022-09-24T08:54:35;13.30;99.90
25963;DHT22;13760;52.588;13.406;2022-09-24T08:57:04;13.40;99.90
25963;DHT22;13760;52.588;13.406;2022-09-24T08:59:36;13.50;99.90
25963;DHT22;13760;52.588;13.406;2022-09-24T09:07:53;13.60;99.90
25963;DHT22;13760;52.588;13.406;2022-09-24T09:10:30;13.70;99.90
25963;DHT22;13760;52.588;13.406;2022-09-24T09:13:12;13.80;99.90
25963;DHT22;13760;52.588;13.406;2022-09-24T09:15:43;13.90;99.90
25963;DHT22;13760;52.588;13.406;2022-09-24T09:18:17;14.00;99.90
25963;DHT22;13760;52.588;13.406;2022-09-24T09:20:46;14.00;99.90
25963;DHT22;13760;52.588;13.406;2022-09-24T09:23:18;14.10;99.90
25963;DHT22;13760;52.588;13.406;2022-09-24T09:25:56;14.10;99.90
25963;DHT22;13760;52.588;13.406;2022-09-24T09:28:25;14.20;99.90
25963;DHT22;13760;52.588;13.406;2022-09-24T09:37:05;14.50;99.90
25963;DHT22;13760;52.588;13.406;2022-09-24T09:39:46;14.60;99.90
25963;DHT22;13760;52.588;13.406;2022-09-24T09:44:52;14.80;99.90
25963;DHT22;13760;52.588;13.406;2022-09-24T09:47:44;14.90;99.90
25963;DHT22;13760;52.588;13.406;2022-09-24T09:52:51;15.00;99.90
25963;DHT22;13760;52.588;13.406;2022-09-24T09:55:23;15.10;99.90
25963;DHT22;13760;52.588;13.406;2022-09-24T09:57:50;15.20;99.90
25963;DHT22;13760;52.588;13.406;2022-09-24T10:00:31;15.20;99.90
25963;DHT22;13760;52.588;13.406;2022-09-24T10:02:58;15.30;99.90
25963;DHT22;13760;52.588;13.406;2022-09-24T10:05:23;15.30;99.90
25963;DHT22;13760;52.588;13.406;2022-09-24T10:07:56;15.40;99.90
25963;DHT22;13760;52.588;13.406;2022-09-24T10:10:26;15.40;99.90
25963;DHT22;13760;52.588;13.406;2022-09-24T10:13:06;15.50;99.90
25963;DHT22;13760;52.588;13.406;2022-09-24T10:15:33;15.50;99.90
25963;DHT22;13760;52.588;13.406;2022-09-24T10:18:00;15.60;99.90
25963;DHT22;13760;52.588;13.406;2022-09-24T10:20:30;15.50;99.90
25963;DHT22;13760;52.588;13.406;2022-09-24T10:23:04;15.60;99.90
25963;DHT22;13760;52.588;13.406;2022-09-24T10:25:31;15.60;99.90
25963;DHT22;13760;52.588;13.406;2022-09-24T10:28:01;15.60;99.90
25963;DHT22;13760;52.588;13.406;2022-09-24T10:30:56;15.60;99.90
25963;DHT22;13760;52.588;13.406;2022-09-24T10:33:26;15.60;99.90
25963;DHT22;13760;52.588;13.406;2022-09-24T10:36:29;15.70;99.90
25963;DHT22;13760;52.588;13.406;2022-09-24T10:39:14;15.70;99.90
25963;DHT22;13760;52.588;13.406;2022-09-24T10:41:48;15.70;99.90
25963;DHT22;13760;52.588;13.406;2022-09-24T10:44:14;15.70;99.90
25963;DHT22;13760;52.588;13.406;2022-09-24T10:46:57;15.70;99.90
25963;DHT22;13760;52.588;13.406;2022-09-24T10:49:31;15.70;99.90
25963;DHT22;13760;52.588;13.406;2022-09-24T10:55:14;15.70;99.90
25963;DHT22;13760;52.588;13.406;2022-09-24T10:57:58;15.80;99.90
25963;DHT22;13760;52.588;13.406;2022-09-24T11:12:15;15.80;99.90
25963;DHT22;13760;52.588;13.406;2022-09-24T11:15:08;15.80;99.90
25963;DHT22;13760;52.588;13.406;2022-09-24T11:18:05;15.80;99.90
25963;DHT22;13760;52.588;13.406;2022-09-24T11:20:34;15.80;99.90
25963;DHT22;13760;52.588;13.406;2022-09-24T11:23:23;15.80;99.90
25963;DHT22;13760;52.588;13.406;2022-09-24T11:41:01;15.90;99.90
25963;DHT22;13760;52.588;13.406;2022-09-24T11:51:51;16.10;99.90
25963;DHT22;13760;52.588;13.406;2022-09-24T11:56:48;16.10;99.90
25963;DHT22;13760;52.588;13.406;2022-09-24T12:02:18;16.20;99.90
25963;DHT22;13760;52.588;13.406;2022-09-24T12:07:33;16.30;99.90
25963;DHT22;13760;52.588;13.406;2022-09-24T12:10:13;16.30;99.90
25963;DHT22;13760;52.588;13.406;2022-09-24T12:12:42;16.30;99.90
25963;DHT22;13760;52.588;13.406;2022-09-24T12:15:22;16.40;99.90
25963;DHT22;13760;52.588;13.406;2022-09-24T12:18:05;16.40;99.90
25963;DHT22;13760;52.588;13.406;2022-09-24T12:20:43;16.40;99.90
25963;DHT22;13760;52.588;13.406;2022-09-24T12:23:12;16.40;99.90
25963;DHT22;13760;52.588;13.406;2022-09-24T12:25:43;16.40;99.90
25963;DHT22;13760;52.588;13.406;2022-09-24T12:28:12;16.50;99.90
25963;DHT22;13760;52.588;13.406;2022-09-24T12:30:46;16.50;99.90
25963;DHT22;13760;52.588;13.406;2022-09-24T12:33:46;16.50;99.90
25963;DHT22;13760;52.588;13.406;2022-09-24T12:36:23;16.50;99.90
25963;DHT22;13760;52.588;13.406;2022-09-24T12:38:56;16.50;99.90
25963;DHT22;13760;52.588;13.406;2022-09-24T12:41:36;16.60;99.90
25963;DHT22;13760;52.588;13.406;2022-09-24T12:44:10;16.60;99.90
25963;DHT22;13760;52.588;13.406;2022-09-24T12:51:54;16.60;99.90
25963;DHT22;13760;52.588;13.406;2022-09-24T12:54:26;16.60;99.90
25963;DHT22;13760;52.588;13.406;2022-09-24T12:57:10;16.60;99.90
25963;DHT22;13760;52.588;13.406;2022-09-24T13:02:15;16.70;99.90
25963;DHT22;13760;52.588;13.406;2022-09-24T13:04:46;16.70;99.90
25963;DHT22;13760;52.588;13.406;2022-09-24T13:07:37;16.80;99.90
25963;DHT22;13760;52.588;13.406;2022-09-24T13:12:42;16.90;99.90
25963;DHT22;13760;52.588;13.406;2022-09-24T13:15:29;17.00;99.90
25963;DHT22;13760;52.588;13.406;2022-09-24T13:18:04;17.10;99.90
25963;DHT22;13760;52.588;13.406;2022-09-24T13:20:31;17.20;99.90
25963;DHT22;13760;52.588;13.406;2022-09-24T13:23:12;17.30;99.90
25963;DHT22;13760;52.588;13.406;2022-09-24T13:25:39;17.20;99.90
25963;DHT22;13760;52.588;13.406;2022-09-24T13:28:23;17.20;99.90
25963;DHT22;13760;52.588;13.406;2022-09-24T13:30:55;17.20;99.90
25963;DHT22;13760;52.588;13.406;2022-09-24T13:33:29;17.20;99.90
25963;DHT22;13760;52.588;13.406;2022-09-24T13:36:04;17.30;99.90
25963;DHT22;13760;52.588;13.406;2022-09-24T13:44:38;17.30;99.90
25963;DHT22;13760;52.588;13.406;2022-09-24T13:47:17;17.30;99.90
25963;DHT22;13760;52.588;13.406;2022-09-24T13:49:48;17.30;99.90
25963;DHT22;13760;52.588;13.406;2022-09-24T13:52:33;17.20;99.90
25963;DHT22;13760;52.588;13.406;2022-09-24T13:55:05;17.20;99.90
25963;DHT22;13760;52.588;13.406;2022-09-24T13:57:42;17.10;99.90
25963;DHT22;13760;52.588;13.406;2022-09-24T14:00:20;17.10;99.90
25963;DHT22;13760;52.588;13.406;2022-09-24T14:02:57;17.10;99.90
25963;DHT22;13760;52.588;13.406;2022-09-24T14:05:25;17.10;99.90
25963;DHT22;13760;52.588;13.406;2022-09-24T14:10:21;17.00;99.90
25963;DHT22;13760;52.588;13.406;2022-09-24T14:15:58;16.90;99.90
25963;DHT22;13760;52.588;13.406;2022-09-24T14:18:28;16.90;99.90
25963;DHT22;13760;52.588;13.406;2022-09-24T14:21:19;16.80;99.90
25963;DHT22;13760;52.588;13.406;2022-09-24T14:23:52;16.80;99.90
25963;DHT22;13760;52.588;13.406;2022-09-24T14:26:29;16.80;99.90
25963;DHT22;13760;52.588;13.406;2022-09-24T14:28:58;16.80;99.90
25963;DHT22;13760;52.588;13.406;2022-09-24T14:31:24;16.80;99.90
25963;DHT22;13760;52.588;13.406;2022-09-24T14:33:50;16.80;99.90
25963;DHT22;13760;52.588;13.406;2022-09-24T14:36:15;16.70;99.90
25963;DHT22;13760;52.588;13.406;2022-09-24T14:38:55;16.70;99.90
25963;DHT22;13760;52.588;13.406;2022-09-24T14:41:24;16.70;99.90
25963;DHT22;13760;52.588;13.406;2022-09-24T14:49:21;16.60;99.90
25963;DHT22;13760;52.588;13.406;2022-09-24T14:51:58;16.60;99.90
25963;DHT22;13760;52.588;13.406;2022-09-24T14:54:45;16.60;99.90
25963;DHT22;13760;52.588;13.406;2022-09-24T14:57:21;16.60;99.90
25963;DHT22;13760;52.588;13.406;2022-09-24T14:59:47;16.70;99.90
25963;DHT22;13760;52.588;13.406;2022-09-24T15:04:55;16.60;99.90
25963;DHT22;13760;52.588;13.406;2022-09-24T15:07:24;16.60;99.90
25963;DHT22;13760;52.588;13.406;2022-09-24T15:09:53;16.60;99.90
25963;DHT22;13760;52.588;13.406;2022-09-24T15:12:27;16.50;99.90
25963;DHT22;13760;52.588;13.406;2022-09-24T15:17:31;16.40;99.90
25963;DHT22;13760;52.588;13.406;2022-09-24T15:19:57;16.40;99.90
25963;DHT22;13760;52.588;13.406;2022-09-24T15:22:27;16.40;99.90
25963;DHT22;13760;52.588;13.406;2022-09-24T15:24:54;16.40;99.90
25963;DHT22;13760;52.588;13.406;2022-09-24T15:27:25;16.30;99.90
25963;DHT22;13760;52.588;13.406;2022-09-24T15:29:52;16.30;99.90
25963;DHT22;13760;52.588;13.406;2022-09-24T15:32:27;16.30;99.90
25963;DHT22;13760;52.588;13.406;2022-09-24T15:34:54;16.20;99.90
25963;DHT22;13760;52.588;13.406;2022-09-24T15:37:22;16.20;99.90
25963;DHT22;13760;52.588;13.406;2022-09-24T15:39:49;16.20;99.90
25963;DHT22;13760;52.588;13.406;2022-09-24T15:42:24;16.20;99.90
25963;DHT22;13760;52.588;13.406;2022-09-24T15:44:50;16.10;99.90
25963;DHT22;13760;52.588;13.406;2022-09-24T15:47:17;16.10;99.90
25963;DHT22;13760;52.588;13.406;2022-09-24T15:49:43;16.00;99.90
25963;DHT22;13760;52.588;13.406;2022-09-24T15:52:24;15.90;99.90
25963;DHT22;13760;52.588;13.406;2022-09-24T15:54:54;15.90;99.90
25963;DHT22;13760;52.588;13.406;2022-09-24T15:57:20;15.90;99.90
25963;DHT22;13760;52.588;13.406;2022-09-24T15:59:50;15.80;99.90
25963;DHT22;13760;52.588;13.406;2022-09-24T16:04:42;15.70;99.90
25963;DHT22;13760;52.588;13.406;2022-09-24T16:07:08;15.70;99.90
25963;DHT22;13760;52.588;13.406;2022-09-24T16:09:34;15.70;99.90
25963;DHT22;13760;52.588;13.406;2022-09-24T16:12:00;15.60;99.90
25963;DHT22;13760;52.588;13.406;2022-09-24T16:14:25;15.50;99.90
25963;DHT22;13760;52.588;13.406;2022-09-24T16:16:51;15.50;99.90
25963;DHT22;13760;52.588;13.406;2022-09-24T16:19:17;15.40;99.90
25963;DHT22;13760;52.588;13.406;2022-09-24T16:21:42;15.40;99.90
25963;DHT22;13760;52.588;13.406;2022-09-24T16:24:08;15.30;99.90
25963;DHT22;13760;52.588;13.406;2022-09-24T16:26:33;15.30;99.90
25963;DHT22;13760;52.588;13.406;2022-09-24T16:29:03;15.30;99.90
25963;DHT22;13760;52.588;13.406;2022-09-24T16:31:29;15.20;99.90
25963;DHT22;13760;52.588;13.406;2022-09-24T16:33:55;15.20;99.90
25963;DHT22;13760;52.588;13.406;2022-09-24T16:36:21;15.10;99.90
25963;DHT22;13760;52.588;13.406;2022-09-24T16:38:48;15.10;99.90
25963;DHT22;13760;52.588;13.406;2022-09-24T16:41:14;15.00;99.90
25963;DHT22;13760;52.588;13.406;2022-09-24T16:43:40;15.00;99.90
25963;DHT22;13760;52.588;13.406;2022-09-24T16:46:08;15.00;99.90
25963;DHT22;13760;52.588;13.406;2022-09-24T16:48:34;14.90;99.90
25963;DHT22;13760;52.588;13.406;2022-09-24T16:51:08;14.90;99.90
25963;DHT22;13760;52.588;13.406;2022-09-24T16:53:34;14.90;99.90
25963;DHT22;13760;52.588;13.406;2022-09-24T16:56:11;14.80;99.90
25963;DHT22;13760;52.588;13.406;2022-09-24T16:58:38;14.80;99.90
25963;DHT22;13760;52.588;13.406;2022-09-24T17:01:09;14.70;99.90
25963;DHT22;13760;52.588;13.406;2022-09-24T17:03:35;14.70;99.90
25963;DHT22;13760;52.588;13.406;2022-09-24T17:06:01;14.60;99.90
25963;DHT22;13760;52.588;13.406;2022-09-24T17:08:29;14.60;99.90
25963;DHT22;13760;52.588;13.406;2022-09-24T17:11:14;14.60;99.90
25963;DHT22;13760;52.588;13.406;2022-09-24T17:13:40;14.60;99.90
25963;DHT22;13760;52.588;13.406;2022-09-24T17:16:06;14.60;99.90
25963;DHT22;13760;52.588;13.406;2022-09-24T17:18:32;14.50;99.90
25963;DHT22;13760;52.588;13.406;2022-09-24T17:21:09;14.50;99.90
25963;DHT22;13760;52.588;13.406;2022-09-24T17:23:39;14.50;99.90
25963;DHT22;13760;52.588;13.406;2022-09-24T17:26:08;14.50;99.90
25963;DHT22;13760;52.588;13.406;2022-09-24T17:28:35;14.40;99.90
25963;DHT22;13760;52.588;13.406;2022-09-24T17:31:01;14.40;99.90